Time;durP1;ratioP1;P1;durP2;ratioP2;P2;SDS_P1;SDS_P2;PMS_P1;PMS_P2;Temp;Humidity;BMP_temperature;BMP_pressure;BME280_temperature;BME280_humidity;BME280_pressure;Samples;Min_cycle;Max_cycle;Signal;HPM_P1;HPM_P2
2023/12/05 00:00:14;;;;;;;15.90;8.57;;;;;;;18.80;42.86;99008.56;4991156;28;20185;-77
2023/12/05 00:02:40;;;;;;;14.40;8.47;;;;;;;18.65;43.33;99014.75;4957717;28;20184;-77
2023/12/05 00:05:05;;;;;;;14.13;7.90;;;;;;;18.65;43.03;99012.72;5005439;28;20725;-75
2023/12/05 00:07:31;;;;;;;13.17;7.83;;;;;;;18.58;42.96;99004.16;4958239;28;20192;-79
2023/12/05 00:09:58;;;;;;;16.80;8.40;;;;;;;18.44;43.51;98998.47;4990163;28;20204;-76
2023/12/05 00:12:23;;;;;;;16.67;7.63;;;;;;;18.67;43.99;99007.38;4990813;28;20215;-76
2023/12/05 00:14:48;;;;;;;10.87;7.40;;;;;;;18.67;44.39;99012.31;4970346;28;20467;-75
2023/12/05 00:17:14;;;;;;;14.90;8.17;;;;;;;18.59;44.34;99017.22;5008802;28;20184;-76
2023/12/05 00:19:39;;;;;;;12.97;7.10;;;;;;;18.45;44.57;99005.00;4977114;28;20181;-75
2023/12/05 00:22:05;;;;;;;10.67;7.37;;;;;;;18.37;44.45;99000.53;4991787;28;20208;-75
2023/12/05 00:24:30;;;;;;;16.33;7.63;;;;;;;18.24;44.39;98996.44;4991982;28;20263;-75
2023/12/05 00:26:56;;;;;;;11.90;6.67;;;;;;;18.18;43.67;99006.66;4990307;28;20255;-76
2023/12/05 00:29:21;;;;;;;10.53;6.30;;;;;;;18.23;43.60;99000.53;4988710;28;20769;-76
2023/12/05 00:31:46;;;;;;;9.97;6.33;;;;;;;18.22;43.68;99007.47;4985385;28;20231;-76
2023/12/05 00:34:12;;;;;;;12.77;6.27;;;;;;;18.15;44.41;99016.84;4970958;28;20481;-76
2023/12/05 00:36:37;;;;;;;10.53;6.00;;;;;;;18.06;44.62;99018.50;4987053;28;20181;-76
2023/12/05 00:39:04;;;;;;;8.10;5.83;;;;;;;18.06;44.47;99005.03;4988119;28;20208;-74
2023/12/05 00:41:29;;;;;;;9.80;5.90;;;;;;;18.11;44.65;99010.31;4989145;28;20408;-77
2023/12/05 00:43:55;;;;;;;15.00;6.70;;;;;;;18.12;44.91;99005.44;4989676;28;20435;-76
2023/12/05 00:46:23;;;;;;;9.67;6.23;;;;;;;18.09;44.97;99018.50;4987192;28;22530;-74
2023/12/05 00:48:49;;;;;;;9.07;4.73;;;;;;;18.09;45.47;99021.34;4988591;28;20174;-74
2023/12/05 00:51:14;;;;;;;9.93;5.93;;;;;;;18.09;45.65;99020.53;4998576;28;20792;-74
2023/12/05 00:53:40;;;;;;;13.93;5.77;;;;;;;18.07;45.61;99012.38;4988964;28;20575;-74
2023/12/05 00:56:15;;;;;;;10.53;5.73;;;;;;;18.09;45.68;99020.53;4998288;28;20181;-74
2023/12/05 00:58:40;;;;;;;11.53;5.70;;;;;;;18.09;46.21;99029.09;4971112;28;20455;-74
2023/12/05 01:01:07;;;;;;;11.87;5.47;;;;;;;18.07;46.18;99028.72;4995310;28;20470;-74
2023/12/05 01:03:32;;;;;;;7.37;5.50;;;;;;;18.06;46.24;99042.16;4991103;28;20675;-73
2023/12/05 01:05:57;;;;;;;7.90;5.33;;;;;;;18.06;46.19;99036.44;4974335;28;20424;-74
2023/12/05 01:08:23;;;;;;;15.53;5.37;;;;;;;18.03;46.03;99039.31;4971109;28;20185;-73
2023/12/05 01:10:48;;;;;;;7.53;5.17;;;;;;;18.01;46.70;99038.91;4973759;28;20244;-74
2023/12/05 01:13:14;;;;;;;10.23;5.30;;;;;;;18.01;46.93;99047.47;4990464;28;20216;-74
2023/12/05 01:15:39;;;;;;;7.93;5.37;;;;;;;18.00;47.15;99040.94;4958012;28;20185;-74
2023/12/05 01:18:05;;;;;;;7.03;4.50;;;;;;;17.99;46.87;99035.63;4972129;28;20235;-74
2023/12/05 01:20:30;;;;;;;7.40;4.57;;;;;;;17.95;47.05;99044.19;5009834;28;20180;-73
2023/12/05 01:22:56;;;;;;;8.07;4.80;;;;;;;17.94;47.88;99045.44;4990594;28;20184;-74
2023/12/05 01:25:21;;;;;;;8.50;4.80;;;;;;;18.01;47.21;99050.34;4990235;28;20176;-74
2023/12/05 01:27:47;;;;;;;7.30;4.90;;;;;;;17.94;47.68;99054.00;5005245;28;20193;-74
2023/12/05 01:30:13;;;;;;;8.40;4.90;;;;;;;17.92;47.67;99062.16;4990304;28;20176;-74
2023/12/05 01:32:38;;;;;;;6.50;4.30;;;;;;;18.10;47.26;99059.28;4970895;28;20775;-75
2023/12/05 01:35:04;;;;;;;7.53;4.80;;;;;;;18.05;47.47;99071.13;4970551;28;20240;-74
2023/12/05 01:37:29;;;;;;;9.20;5.70;;;;;;;18.13;47.41;99073.59;4983375;28;20186;-74
2023/12/05 01:39:55;;;;;;;7.97;4.90;;;;;;;18.07;47.44;99069.47;4987648;28;20158;-74
2023/12/05 01:42:20;;;;;;;5.27;3.80;;;;;;;18.07;47.26;99063.78;4987803;28;20646;-74
2023/12/05 01:44:46;;;;;;;6.40;4.40;;;;;;;18.15;47.02;99061.72;4967395;28;20175;-74
2023/12/05 01:47:11;;;;;;;6.77;4.33;;;;;;;18.03;47.48;99065.00;5002644;28;20191;-74
2023/12/05 01:49:37;;;;;;;9.20;5.10;;;;;;;18.06;47.58;99047.88;5011199;28;20185;-74
2023/12/05 01:52:03;;;;;;;9.03;5.33;;;;;;;18.16;47.63;99055.63;4990711;28;20913;-74
2023/12/05 01:54:28;;;;;;;7.47;4.53;;;;;;;18.04;47.86;99060.91;4997365;28;20307;-74
2023/12/05 01:56:54;;;;;;;8.33;4.93;;;;;;;17.97;48.08;99064.59;5004903;28;20350;-72
2023/12/05 01:59:20;;;;;;;7.63;5.07;;;;;;;17.91;48.71;99077.63;5023015;28;20203;-72
2023/12/05 02:01:48;;;;;;;6.70;4.87;;;;;;;17.92;48.89;99072.75;4988694;28;20432;-71
2023/12/05 02:04:14;;;;;;;7.23;4.40;;;;;;;17.88;48.46;99075.63;4944769;28;20945;-71
2023/12/05 02:06:41;;;;;;;4.77;3.80;;;;;;;17.90;48.54;99070.31;4982343;28;20464;-71
2023/12/05 02:09:08;;;;;;;5.27;3.70;;;;;;;17.91;49.18;99066.22;4986070;28;20428;-72
2023/12/05 02:11:34;;;;;;;6.13;4.60;;;;;;;17.98;48.61;99066.25;4970444;28;20778;-71
2023/12/05 02:13:59;;;;;;;6.90;4.70;;;;;;;17.99;48.36;99076.44;4970484;28;20496;-72
2023/12/05 02:16:34;;;;;;;7.13;3.90;;;;;;;17.94;48.96;99073.97;4969276;28;21005;-71
2023/12/05 02:19:19;;;;;;;7.70;4.40;;;;;;;17.93;48.59;99069.50;4966728;28;20305;-72
2023/12/05 02:21:44;;;;;;;6.30;3.73;;;;;;;17.87;49.14;99064.59;4984153;28;20902;-71
2023/12/05 02:24:21;;;;;;;7.17;4.90;;;;;;;17.88;48.51;99064.19;4989176;28;20451;-71
2023/12/05 02:26:50;;;;;;;5.80;4.23;;;;;;;17.87;48.85;99068.28;4991922;28;20534;-71
2023/12/05 02:29:15;;;;;;;5.63;3.90;;;;;;;17.88;48.75;99064.19;4988327;28;20761;-72
2023/12/05 02:31:41;;;;;;;6.70;4.40;;;;;;;17.84;49.05;99071.94;4967386;28;20441;-71
2023/12/05 02:34:06;;;;;;;6.17;4.00;;;;;;;17.85;48.85;99061.34;4994255;28;20233;-71
2023/12/05 02:36:43;;;;;;;7.30;4.70;;;;;;;17.88;48.85;99055.63;4987736;28;20166;-71
2023/12/05 02:39:27;;;;;;;6.90;3.87;;;;;;;17.87;49.02;99058.88;4953829;28;20447;-71
2023/12/05 02:41:54;;;;;;;7.57;3.67;;;;;;;17.85;48.95;99067.06;4984017;28;20434;-71
2023/12/05 02:44:23;;;;;;;5.97;4.00;;;;;;;17.87;48.66;99059.72;4951562;28;20440;-71
2023/12/05 02:46:49;;;;;;;6.67;4.10;;;;;;;17.92;48.62;99055.63;4967827;28;20423;-72
2023/12/05 02:49:16;;;;;;;6.60;4.10;;;;;;;17.99;47.99;99050.72;4933274;28;20430;-71
2023/12/05 02:51:42;;;;;;;5.57;3.80;;;;;;;18.00;48.35;99051.53;4951559;28;20438;-71
2023/12/05 02:54:07;;;;;;;7.97;3.40;;;;;;;18.03;48.30;99057.28;4969267;28;20652;-71
2023/12/05 02:56:36;;;;;;;7.17;4.50;;;;;;;18.03;48.60;99059.28;4967587;28;20438;-71
2023/12/05 02:59:02;;;;;;;7.47;3.90;;;;;;;18.03;48.51;99065.84;4969444;28;20189;-71
2023/12/05 03:01:27;;;;;;;5.77;3.40;;;;;;;18.04;48.50;99050.31;4973884;28;20433;-71
2023/12/05 03:03:53;;;;;;;5.83;3.60;;;;;;;18.05;48.60;99069.09;4944972;28;20516;-71
2023/12/05 03:06:18;;;;;;;5.70;3.70;;;;;;;18.05;48.83;99071.94;4971250;28;20170;-71
2023/12/05 03:08:44;;;;;;;5.93;3.90;;;;;;;17.99;48.76;99067.03;4962757;28;20519;-71
2023/12/05 03:11:09;;;;;;;5.67;3.70;;;;;;;17.97;48.55;99058.06;4935478;29;20442;-71
2023/12/05 03:14:00;;;;;;;7.10;4.20;;;;;;;17.89;49.03;99065.81;4956486;28;20240;-72
2023/12/05 03:16:26;;;;;;;7.33;3.60;;;;;;;17.86;49.34;99066.63;4934226;29;20205;-76
2023/12/05 03:18:51;;;;;;;6.90;3.97;;;;;;;17.84;50.26;99065.41;4934946;29;20934;-75
2023/12/05 03:21:19;;;;;;;7.83;4.37;;;;;;;17.84;49.42;99077.66;4967486;28;20521;-75
2023/12/05 03:23:45;;;;;;;7.30;4.30;;;;;;;17.83;49.92;99078.88;4954129;28;20178;-74
2023/12/05 03:26:20;;;;;;;6.30;3.70;;;;;;;17.85;49.51;99078.47;4952532;28;20438;-76
2023/12/05 03:28:47;;;;;;;7.70;3.70;;;;;;;17.83;49.79;99081.72;4954795;28;20174;-76
2023/12/05 03:31:13;;;;;;;5.47;3.43;;;;;;;17.82;49.59;99077.25;4954816;28;20493;-76
2023/12/05 03:33:38;;;;;;;6.67;3.90;;;;;;;17.83;49.75;99073.16;4961133;28;21019;-76
2023/12/05 03:36:04;;;;;;;5.70;3.47;;;;;;;17.84;49.91;99073.97;4987680;28;20182;-76
2023/12/05 03:38:30;;;;;;;5.07;3.13;;;;;;;17.83;49.69;99070.31;4989514;28;20177;-76
2023/12/05 03:40:55;;;;;;;7.90;4.33;;;;;;;17.82;49.50;99073.56;5004590;28;20507;-76
2023/12/05 03:43:21;;;;;;;5.80;3.37;;;;;;;17.80;49.73;99076.03;4990779;28;20170;-75
2023/12/05 03:45:47;;;;;;;5.20;3.20;;;;;;;17.77;50.31;99071.94;4981985;28;20241;-76
2023/12/05 03:48:13;;;;;;;4.70;3.07;;;;;;;17.82;49.62;99076.41;4954094;28;20189;-76
2023/12/05 03:50:38;;;;;;;5.50;3.97;;;;;;;17.81;49.67;99074.78;4978121;28;20186;-76
2023/12/05 03:53:03;;;;;;;6.07;3.87;;;;;;;17.82;49.40;99082.13;4973435;28;20209;-76
2023/12/05 03:55:32;;;;;;;4.87;3.73;;;;;;;17.78;49.91;99078.44;4989771;28;20190;-76
2023/12/05 03:57:58;;;;;;;6.17;3.80;;;;;;;17.80;49.67;99082.53;4974191;28;20209;-76
2023/12/05 04:00:23;;;;;;;4.57;3.40;;;;;;;17.79;49.98;99083.75;4973732;28;20413;-76
2023/12/05 04:02:49;;;;;;;5.50;3.90;;;;;;;17.85;49.79;99087.84;4973146;28;20186;-76
2023/12/05 04:05:14;;;;;;;5.07;3.17;;;;;;;17.89;49.75;99087.84;4971748;28;20284;-76
2023/12/05 04:07:40;;;;;;;4.70;3.30;;;;;;;17.90;49.21;99093.16;4989109;28;20634;-76
2023/12/05 04:10:06;;;;;;;5.17;3.00;;;;;;;17.97;49.38;99087.44;4988501;28;20600;-76
2023/12/05 04:12:32;;;;;;;6.30;3.63;;;;;;;17.97;49.37;99084.56;4988484;28;20787;-77
2023/12/05 04:14:57;;;;;;;6.97;3.70;;;;;;;18.05;49.09;99094.78;4982221;28;20480;-76
2023/12/05 04:17:23;;;;;;;6.30;3.73;;;;;;;18.02;49.18;99094.78;4988045;28;20174;-76
2023/12/05 04:19:48;;;;;;;5.37;3.20;;;;;;;17.89;49.31;99091.53;4988901;28;20615;-76
2023/12/05 04:22:13;;;;;;;5.80;3.33;;;;;;;18.08;48.87;99099.69;5006630;28;20304;-76
2023/12/05 04:24:39;;;;;;;5.93;2.70;;;;;;;17.98;49.25;99099.69;4991933;28;20178;-76
2023/12/05 04:27:04;;;;;;;4.30;2.63;;;;;;;18.04;48.98;99095.19;4959464;28;20261;-71
2023/12/05 04:29:30;;;;;;;5.40;3.40;;;;;;;18.05;49.15;99102.53;5003753;28;20186;-72
2023/12/05 04:31:58;;;;;;;5.63;3.53;;;;;;;17.95;49.49;99098.44;4979461;28;20185;-71
2023/12/05 04:34:23;;;;;;;5.37;3.07;;;;;;;17.85;49.96;99095.59;4991966;28;20738;-71
2023/12/05 04:36:50;;;;;;;5.03;3.40;;;;;;;17.82;50.08;99096.41;4975449;28;20439;-71
2023/12/05 04:39:16;;;;;;;5.03;3.17;;;;;;;17.81;50.23;99100.47;4991389;28;20178;-71
2023/12/05 04:41:42;;;;;;;5.70;3.17;;;;;;;17.79;50.16;99102.91;4991857;28;20431;-71
2023/12/05 04:44:07;;;;;;;4.47;3.03;;;;;;;17.81;50.07;99112.69;4991329;28;21010;-71
2023/12/05 04:46:37;;;;;;;6.07;3.07;;;;;;;17.81;49.78;99109.84;4995850;28;20169;-71
2023/12/05 04:49:02;;;;;;;4.70;2.77;;;;;;;17.83;49.58;99118.00;4956787;28;20232;-71
2023/12/05 04:51:27;;;;;;;6.90;3.83;;;;;;;17.80;50.51;99113.94;4990819;28;20885;-71
2023/12/05 04:53:53;;;;;;;6.63;3.00;;;;;;;17.83;49.57;99113.13;4999854;28;20201;-71
2023/12/05 04:56:18;;;;;;;4.27;2.73;;;;;;;17.84;49.83;99122.50;4992009;28;20180;-71
2023/12/05 04:58:44;;;;;;;5.80;3.37;;;;;;;17.84;49.64;99111.06;5009120;28;20185;-71
2023/12/05 05:01:09;;;;;;;5.37;3.00;;;;;;;17.82;50.61;99117.22;5004749;28;20228;-71
2023/12/05 05:03:35;;;;;;;4.13;2.90;;;;;;;17.78;50.12;99124.94;4978153;28;20189;-71
2023/12/05 05:06:00;;;;;;;4.97;3.10;;;;;;;17.78;50.29;99119.25;4990439;28;20192;-72
2023/12/05 05:08:25;;;;;;;5.73;3.20;;;;;;;17.82;50.52;99124.94;5008976;28;20188;-71
2023/12/05 05:10:51;;;;;;;5.63;3.60;;;;;;;17.80;50.44;99122.50;5023722;28;20181;-71
2023/12/05 05:13:16;;;;;;;4.80;3.20;;;;;;;17.81;49.81;99132.69;5027994;28;20200;-71
2023/12/05 05:15:42;;;;;;;4.90;3.30;;;;;;;17.80;50.15;99122.50;5007979;28;20525;-71
2023/12/05 05:18:07;;;;;;;4.70;3.37;;;;;;;17.78;50.00;99118.41;4991077;28;20705;-72
2023/12/05 05:20:33;;;;;;;4.47;2.60;;;;;;;17.83;50.11;99121.69;4992529;28;20555;-72
2023/12/05 05:22:58;;;;;;;4.07;3.23;;;;;;;17.78;50.33;99124.94;5009222;28;20584;-71
2023/12/05 05:25:24;;;;;;;4.00;2.80;;;;;;;17.90;49.91;99127.41;4990904;28;20608;-71
2023/12/05 05:27:50;;;;;;;3.30;2.50;;;;;;;17.97;49.46;99129.47;4974120;28;20188;-71
2023/12/05 05:30:17;;;;;;;5.70;3.37;;;;;;;18.05;49.44;99126.22;4963037;28;20447;-71
2023/12/05 05:32:43;;;;;;;5.57;2.80;;;;;;;18.03;49.65;99125.81;4970959;28;20564;-72
2023/12/05 05:35:09;;;;;;;4.40;2.63;;;;;;;18.09;49.02;99124.19;5009226;28;20522;-74
2023/12/05 05:37:34;;;;;;;3.60;2.60;;;;;;;18.14;49.10;99123.78;4990088;28;20455;-74
2023/12/05 05:40:00;;;;;;;4.07;2.80;;;;;;;17.99;49.74;99124.97;4974848;28;20180;-73
2023/12/05 05:42:25;;;;;;;3.93;2.53;;;;;;;17.94;50.55;99128.25;4991344;28;20180;-74
2023/12/05 05:44:51;;;;;;;4.40;3.00;;;;;;;17.89;50.01;99134.34;4989805;28;20193;-74
2023/12/05 05:47:16;;;;;;;5.47;2.90;;;;;;;17.85;50.47;99127.00;4989676;28;20208;-74
2023/12/05 05:49:42;;;;;;;3.97;2.67;;;;;;;17.88;49.96;99135.56;4990734;28;20199;-74
2023/12/05 05:52:08;;;;;;;4.10;2.70;;;;;;;17.85;50.34;99124.16;5006415;28;20633;-74
2023/12/05 05:54:33;;;;;;;5.63;3.33;;;;;;;17.84;50.20;99131.88;4978068;28;20475;-74
2023/12/05 05:56:59;;;;;;;4.03;2.73;;;;;;;17.87;50.01;99130.25;4990216;28;20607;-75
2023/12/05 05:59:24;;;;;;;5.67;2.50;;;;;;;17.84;50.15;99131.88;4989836;28;20177;-75
2023/12/05 06:01:50;;;;;;;4.13;2.60;;;;;;;17.84;50.21;99137.59;4987571;28;20554;-74
2023/12/05 06:04:15;;;;;;;4.20;2.50;;;;;;;17.85;50.40;99139.22;5004969;28;20185;-74
2023/12/05 06:06:41;;;;;;;3.83;2.70;;;;;;;17.88;50.12;99138.44;4975548;28;20173;-74
2023/12/05 06:09:06;;;;;;;4.07;2.57;;;;;;;17.90;50.28;99150.25;4989289;28;20235;-74
2023/12/05 06:11:32;;;;;;;3.10;2.40;;;;;;;17.84;50.00;99140.44;4970429;28;20192;-74
2023/12/05 06:13:57;;;;;;;3.67;2.40;;;;;;;17.85;50.17;99144.94;4989826;28;20212;-74
2023/12/05 06:16:22;;;;;;;4.10;2.67;;;;;;;17.86;50.08;99154.31;4970636;28;20190;-74
2023/12/05 06:18:48;;;;;;;4.20;3.10;;;;;;;17.84;50.34;99143.31;4964670;28;20532;-74
2023/12/05 06:21:14;;;;;;;4.23;2.60;;;;;;;17.83;50.47;99146.56;4993207;28;20671;-73
2023/12/05 06:23:39;;;;;;;5.03;2.90;;;;;;;17.86;50.56;99140.06;5001429;28;20663;-74
2023/12/05 06:26:05;;;;;;;3.70;2.20;;;;;;;17.85;50.10;99149.84;4993244;28;20191;-74
2023/12/05 06:28:30;;;;;;;4.00;2.47;;;;;;;17.83;50.27;99155.94;5014833;28;20814;-74
2023/12/05 06:30:56;;;;;;;4.97;2.73;;;;;;;17.86;50.22;99152.28;4978696;28;20221;-74
2023/12/05 06:33:21;;;;;;;4.47;2.73;;;;;;;17.85;50.56;99153.50;4989921;28;20216;-74
2023/12/05 06:35:47;;;;;;;4.00;2.40;;;;;;;17.86;50.71;99160.84;4974182;28;20180;-74
2023/12/05 06:38:13;;;;;;;4.33;2.67;;;;;;;17.82;50.83;99156.34;4990706;28;20189;-74
2023/12/05 06:40:39;;;;;;;3.43;2.33;;;;;;;17.96;49.84;99160.03;4978097;28;20169;-74
2023/12/05 06:43:04;;;;;;;3.67;2.53;;;;;;;18.02;49.71;99158.41;4993610;28;20447;-74
2023/12/05 06:45:30;;;;;;;3.30;2.23;;;;;;;18.10;49.61;99165.78;5011702;28;20598;-74
2023/12/05 06:47:56;;;;;;;3.43;2.80;;;;;;;18.14;49.42;99160.91;4977544;28;20181;-74
2023/12/05 06:50:21;;;;;;;3.33;2.37;;;;;;;18.17;49.35;99165.00;4977835;28;20166;-74
2023/12/05 06:52:47;;;;;;;2.90;1.90;;;;;;;18.11;49.50;99164.56;4984311;28;20243;-74
2023/12/05 06:55:12;;;;;;;3.23;2.47;;;;;;;18.00;49.83;99166.59;4957649;28;20312;-74
2023/12/05 06:57:38;;;;;;;2.80;2.00;;;;;;;18.01;49.97;99173.94;4972728;28;20190;-74
2023/12/05 07:00:04;;;;;;;4.37;3.00;;;;;;;17.95;50.74;99175.56;4972494;28;20173;-73
2023/12/05 07:02:30;;;;;;;3.77;2.40;;;;;;;17.97;50.24;99187.38;4989191;28;20212;-73
2023/12/05 07:04:57;;;;;;;5.13;2.70;;;;;;;17.92;50.32;99190.66;4959528;28;20961;-74
2023/12/05 07:07:24;;;;;;;5.97;2.37;;;;;;;17.97;49.94;99189.44;4968603;28;20189;-74
2023/12/05 07:09:49;;;;;;;4.67;2.07;;;;;;;17.96;50.13;99188.59;4976511;28;21538;-74
2023/12/05 07:12:14;;;;;;;5.60;2.53;;;;;;;17.91;50.30;99186.13;4968172;28;20424;-75
2023/12/05 07:14:40;;;;;;;4.27;2.20;;;;;;;17.96;49.81;99193.50;4974720;28;20216;-74
2023/12/05 07:17:06;;;;;;;3.70;2.00;;;;;;;17.91;50.29;99197.56;4991641;28;20193;-74
2023/12/05 07:19:31;;;;;;;4.53;2.50;;;;;;;17.96;50.13;99199.22;4986978;28;20189;-73
2023/12/05 07:21:56;;;;;;;4.50;2.20;;;;;;;17.91;50.57;99211.84;4971854;28;20231;-74
2023/12/05 07:24:22;;;;;;;4.70;2.40;;;;;;;17.84;50.34;99214.69;4993151;28;20196;-72
2023/12/05 07:26:48;;;;;;;5.07;2.83;;;;;;;17.56;50.50;99214.56;4976460;28;20196;-71
2023/12/05 07:29:13;;;;;;;6.67;3.27;;;;;;;17.58;50.30;99217.84;4962551;28;20275;-75
2023/12/05 07:31:39;;;;;;;6.00;3.50;;;;;;;17.81;50.67;99224.03;4988879;28;20487;-76
2023/12/05 07:34:05;;;;;;;13.93;3.43;;;;;;;17.97;49.55;99213.06;4990803;28;20243;-75
2023/12/05 07:36:30;;;;;;;7.07;2.83;;;;;;;18.23;50.45;99217.63;4975535;28;20322;-76
2023/12/05 07:38:55;;;;;;;11.07;3.40;;;;;;;18.43;50.74;99221.78;4973165;28;20207;-75
2023/12/05 07:41:22;;;;;;;14.47;3.20;;;;;;;18.44;49.71;99229.97;5028181;28;20223;-72
2023/12/05 07:43:49;;;;;;;10.33;2.50;;;;;;;18.38;49.59;99231.59;5012635;28;20167;-72
2023/12/05 07:46:15;;;;;;;8.03;2.60;;;;;;;18.85;49.40;99236.91;4981866;28;20484;-72
2023/12/05 07:48:41;;;;;;;12.83;2.70;;;;;;;19.01;49.41;99239.38;4992175;28;20467;-72
2023/12/05 07:51:06;;;;;;;6.10;2.53;;;;;;;19.11;49.02;99238.56;4982693;28;20193;-73
2023/12/05 07:53:32;;;;;;;9.17;2.67;;;;;;;19.24;48.88;99246.31;4996335;28;20205;-72
2023/12/05 07:55:57;;;;;;;6.47;2.50;;;;;;;19.16;49.08;99247.50;4990360;28;20229;-76
2023/12/05 07:58:23;;;;;;;6.37;2.40;;;;;;;19.22;49.13;99251.63;4967275;28;20196;-73
2023/12/05 08:00:48;;;;;;;9.63;2.90;;;;;;;19.21;49.14;99240.56;4985650;28;20247;-74
2023/12/05 08:03:14;;;;;;;7.40;2.40;;;;;;;19.19;49.15;99246.72;4963114;28;20185;-74
2023/12/05 08:05:40;;;;;;;8.37;2.47;;;;;;;19.22;49.83;99245.91;5000735;28;20534;-73
2023/12/05 08:08:05;;;;;;;4.93;2.03;;;;;;;19.14;49.74;99247.13;4963612;28;20293;-75
2023/12/05 08:10:31;;;;;;;9.10;2.90;;;;;;;19.08;49.98;99239.34;4961982;28;20180;-74
2023/12/05 08:12:56;;;;;;;4.43;2.17;;;;;;;19.02;50.48;99235.28;4992301;28;20177;-76
2023/12/05 08:15:22;;;;;;;6.47;2.70;;;;;;;18.84;51.41;99243.03;4978564;28;20180;-74
2023/12/05 08:17:47;;;;;;;9.13;2.80;;;;;;;18.65;51.58;99249.16;4980370;28;20178;-74
2023/12/05 08:20:13;;;;;;;5.73;2.83;;;;;;;18.56;52.67;99240.97;4990827;28;20184;-73
2023/12/05 08:22:38;;;;;;;8.80;3.00;;;;;;;18.65;51.82;99247.13;5004927;28;20803;-74
2023/12/05 08:25:07;;;;;;;8.13;2.37;;;;;;;18.60;52.19;99241.81;4992835;28;20220;-74
2023/12/05 08:27:33;;;;;;;5.30;2.17;;;;;;;18.60;50.50;99247.53;4996458;28;20192;-74
2023/12/05 08:29:59;;;;;;;7.30;2.40;;;;;;;18.51;50.89;99249.97;4983616;28;20556;-74
2023/12/05 08:32:24;;;;;;;6.37;2.10;;;;;;;18.53;50.78;99252.41;4999046;28;20544;-73
2023/12/05 08:34:50;;;;;;;3.97;2.50;;;;;;;18.54;50.17;99248.34;4970552;28;20229;-73
2023/12/05 08:37:15;;;;;;;6.67;2.40;;;;;;;18.57;49.84;99251.19;4966165;28;20181;-73
2023/12/05 08:39:41;;;;;;;7.60;2.67;;;;;;;18.50;49.62;99254.06;5004815;28;20555;-73
2023/12/05 08:42:06;;;;;;;8.27;2.50;;;;;;;18.32;49.27;99256.03;4986533;28;20239;-73
2023/12/05 08:44:32;;;;;;;5.40;2.43;;;;;;;18.37;49.38;99249.13;4986610;28;20193;-73
2023/12/05 08:46:57;;;;;;;7.00;2.60;;;;;;;18.41;48.89;99253.63;4966774;28;20193;-73
2023/12/05 08:49:22;;;;;;;7.30;2.00;;;;;;;18.38;49.07;99240.16;4980135;28;20177;-72
2023/12/05 08:51:48;;;;;;;3.33;1.97;;;;;;;18.37;48.02;99252.78;4972247;28;20225;-75
2023/12/05 08:54:13;;;;;;;6.63;1.90;;;;;;;18.31;48.28;99260.09;4986350;28;20216;-75
2023/12/05 08:56:39;;;;;;;6.70;2.33;;;;;;;18.27;48.12;99259.25;4980768;28;20190;-75
2023/12/05 08:59:04;;;;;;;7.10;2.27;;;;;;;18.17;48.21;99250.69;4968031;28;20190;-77
2023/12/05 09:01:30;;;;;;;4.93;1.80;;;;;;;18.09;48.16;99249.03;4947742;28;20554;-74
2023/12/05 09:03:55;;;;;;;8.53;2.80;;;;;;;18.10;48.10;99253.50;4986396;28;20840;-74
2023/12/05 09:06:20;;;;;;;6.63;2.13;;;;;;;18.18;48.24;99253.16;4966927;28;20188;-72
2023/12/05 09:08:46;;;;;;;6.30;2.33;;;;;;;18.19;47.52;99260.50;4979639;28;20200;-73
2023/12/05 09:11:12;;;;;;;7.50;2.40;;;;;;;18.06;47.43;99259.22;5009797;28;20197;-75
2023/12/05 09:13:37;;;;;;;7.03;2.00;;;;;;;18.00;47.71;99272.25;4979095;28;20224;-70
2023/12/05 09:16:03;;;;;;;10.30;2.53;;;;;;;18.05;47.79;99274.72;4983551;28;20190;-72
2023/12/05 09:18:28;;;;;;;7.47;1.93;;;;;;;18.16;48.66;99266.19;4969085;28;20203;-73
2023/12/05 09:20:54;;;;;;;16.17;2.60;;;;;;;18.33;49.60;99276.88;4981759;28;20198;-71
2023/12/05 09:23:19;;;;;;;15.40;3.13;;;;;;;18.39;49.31;99281.78;4972098;28;20208;-73
2023/12/05 09:25:45;;;;;;;22.63;2.63;;;;;;;18.44;49.45;99278.53;4966993;28;20193;-73
2023/12/05 09:28:10;;;;;;;10.13;2.40;;;;;;;18.45;49.34;99285.88;4972521;28;20243;-72
2023/12/05 09:30:36;;;;;;;14.93;2.93;;;;;;;18.39;49.29;99295.25;4974697;28;20157;-72
2023/12/05 09:33:02;;;;;;;11.73;2.43;;;;;;;18.37;49.73;99281.38;4968782;28;20212;-72
2023/12/05 09:35:28;;;;;;;10.73;2.93;;;;;;;18.40;50.00;99288.31;4991007;28;20300;-72
2023/12/05 09:37:53;;;;;;;10.90;2.83;;;;;;;18.36;49.68;99291.16;4958329;28;20208;-72
2023/12/05 09:40:19;;;;;;;10.70;2.67;;;;;;;18.32;50.02;99293.19;4991447;28;20648;-72
2023/12/05 09:42:49;;;;;;;10.50;2.40;;;;;;;18.31;50.13;99291.53;4974316;28;20181;-72
2023/12/05 09:45:15;;;;;;;8.17;2.07;;;;;;;18.26;50.10;99289.06;4960355;28;20181;-72
2023/12/05 09:47:45;;;;;;;10.80;2.50;;;;;;;18.34;50.40;99302.19;4991894;28;21010;-72
2023/12/05 09:50:10;;;;;;;12.83;2.40;;;;;;;18.30;50.07;99294.78;4974531;28;20529;-72
2023/12/05 09:52:36;;;;;;;9.00;3.13;;;;;;;18.38;50.25;99311.59;4973387;28;20440;-72
2023/12/05 09:55:02;;;;;;;7.90;2.40;;;;;;;18.37;50.47;99318.50;4993051;28;20201;-72
2023/12/05 09:57:28;;;;;;;10.67;2.70;;;;;;;18.37;50.55;99309.94;5006115;28;20182;-72
2023/12/05 09:59:53;;;;;;;6.80;1.97;;;;;;;18.24;50.71;99313.53;4994911;28;20194;-72
2023/12/05 10:02:20;;;;;;;8.83;2.30;;;;;;;18.36;50.51;99313.22;4987357;28;20428;-72
2023/12/05 10:04:46;;;;;;;12.23;2.80;;;;;;;18.30;51.22;99317.63;4974106;28;20184;-72
2023/12/05 10:07:12;;;;;;;9.17;2.30;;;;;;;18.28;51.03;99306.63;4973153;28;20408;-72
2023/12/05 10:09:41;;;;;;;13.83;2.20;;;;;;;18.30;51.07;99301.31;4972901;28;20177;-72
2023/12/05 10:12:10;;;;;;;8.97;2.00;;;;;;;18.26;51.10;99299.69;4971175;28;20268;-72
2023/12/05 10:14:36;;;;;;;6.93;2.00;;;;;;;18.22;51.54;99311.09;4991073;28;20460;-73
2023/12/05 10:17:02;;;;;;;7.70;2.20;;;;;;;18.23;51.27;99300.50;4993834;28;20469;-74
2023/12/05 10:19:29;;;;;;;13.17;2.87;;;;;;;18.22;51.50;99287.44;4981928;28;20918;-75
2023/12/05 10:21:54;;;;;;;9.90;2.27;;;;;;;18.27;51.17;99292.75;5012489;28;20647;-74
2023/12/05 10:24:20;;;;;;;8.93;2.43;;;;;;;18.24;51.52;99297.22;4993952;28;20397;-74
2023/12/05 10:26:46;;;;;;;7.43;2.60;;;;;;;18.24;51.23;99297.22;4977638;28;20244;-74
2023/12/05 10:29:13;;;;;;;7.43;2.63;;;;;;;18.24;51.33;99290.69;4964956;28;20769;-74
2023/12/05 10:31:38;;;;;;;7.00;1.90;;;;;;;18.27;51.67;99302.13;4991279;28;21224;-74
2023/12/05 10:34:05;;;;;;;14.43;2.50;;;;;;;18.21;51.33;99292.31;4981283;28;20491;-74
2023/12/05 10:36:31;;;;;;;6.67;1.83;;;;;;;18.20;52.03;99304.13;5012675;28;20223;-74
2023/12/05 10:38:56;;;;;;;9.90;2.23;;;;;;;18.18;51.53;99287.44;4993566;28;20499;-74
2023/12/05 10:41:22;;;;;;;8.63;1.87;;;;;;;18.22;51.75;99284.56;4972758;28;20246;-74
2023/12/05 10:43:49;;;;;;;13.83;2.93;;;;;;;18.19;51.93;99294.78;4976636;28;20664;-74
2023/12/05 10:46:14;;;;;;;8.70;3.17;;;;;;;18.23;50.90;99295.59;4993555;28;20239;-75
2023/12/05 10:48:39;;;;;;;11.27;3.10;;;;;;;18.21;51.84;99294.38;4993689;28;20464;-74
2023/12/05 10:51:05;;;;;;;7.33;2.00;;;;;;;18.17;51.67;99291.47;4994334;28;20236;-74
2023/12/05 10:53:34;;;;;;;8.63;2.10;;;;;;;18.23;51.92;99278.47;4992975;28;20268;-76
2023/12/05 10:56:10;;;;;;;7.23;2.33;;;;;;;18.20;52.16;99279.25;4978218;28;20176;-74
2023/12/05 10:58:36;;;;;;;9.13;1.80;;;;;;;18.18;52.09;99286.59;4994370;28;20416;-74
2023/12/05 11:01:01;;;;;;;5.80;2.23;;;;;;;18.16;52.21;99274.75;4974811;28;20452;-75
2023/12/05 11:03:27;;;;;;;5.87;2.17;;;;;;;18.19;51.94;99269.06;4991840;28;20189;-74
2023/12/05 11:05:52;;;;;;;8.00;2.23;;;;;;;18.20;52.02;99273.53;4994202;28;20173;-74
2023/12/05 11:08:18;;;;;;;4.67;1.70;;;;;;;18.20;51.78;99273.53;4976735;28;20189;-74
2023/12/05 11:10:43;;;;;;;11.73;2.50;;;;;;;18.18;52.19;99281.72;4994340;28;20652;-74
2023/12/05 11:13:10;;;;;;;6.83;2.33;;;;;;;18.16;52.20;99284.13;4976720;28;20181;-75
2023/12/05 11:15:36;;;;;;;10.20;2.00;;;;;;;18.21;52.08;99275.16;4960936;28;20263;-75
2023/12/05 11:18:12;;;;;;;11.50;2.10;;;;;;;18.23;51.57;99278.47;4993630;28;20458;-74
2023/12/05 11:20:59;;;;;;;7.50;1.97;;;;;;;18.19;51.89;99288.22;4991816;28;20451;-74
2023/12/05 11:24:02;;;;;;;8.70;1.60;;;;;;;18.18;52.11;99280.88;4993021;28;20474;-74
2023/12/05 11:26:49;;;;;;;6.13;2.10;;;;;;;18.22;51.80;99281.72;5002590;28;20935;-72